LPPS Airport Information

Runway Information
Runway 01 Length 0 ft width 0 ft
Elevation 240 ft Threshold 0 ft Heading 0
Runway 19 Length 0 ft Width 0 ft
Elevation 341 ft Threshold 0 ft Heading 0
Runway 18 Length 9861 ft width 148 ft
Elevation 240 ft Threshold 0 ft Heading 178
Runway 36 Length 9861 ft Width 148 ft
Elevation 338 ft Threshold 0 ft Heading 358
Airport Frequencies
Type GCA Name GCA Frequency 123.3 MHZ
Type TWR Name TWR Frequency 118.4 MHZ
Airport Navaids
Type NDB Name Porto Santo Frequency 338 KHZ
Type VOR-DME Name Porto Santo Frequency 114900 KHZ
Type TACAN Name Porto Santo Frequency 116300 KHZ
Airport Weather Information & NOTAM
ADDS - METARS form results

(2357 UTC 18 January 2018)
 
METAR text: LPPS 182330Z 02017KT 350V050 9999 SCT015 SCT030 16/10 Q1026
Conditions at: LPPS (PORTO SANTO ISLA, PT) observed 2330 UTC 18 January 2018
Temperature: 16.0°C (61°F)
Dewpoint: 10.0°C (50°F) [RH = 68%]
Pressure (altimeter): 30.30 inches Hg (1026.0 mb)
Winds: from the NNE (20 degrees) at 20 MPH (17 knots; 8.8 m/s)
Visibility: 6 or more miles (10+ km)
Ceiling: at least 12,000 feet AGL
Clouds: scattered clouds at 1500 feet AGL
scattered clouds at 3000 feet AGL
Weather: no significant weather observed at this time

METAR text: LPPS 182300Z 01016KT 9999 SCT015 SCT030 16/11 Q1026
Conditions at: LPPS (PORTO SANTO ISLA, PT) observed 2300 UTC 18 January 2018
Temperature: 16.0°C (61°F)
Dewpoint: 11.0°C (52°F) [RH = 72%]
Pressure (altimeter): 30.30 inches Hg (1026.0 mb)
Winds: from the N (10 degrees) at 18 MPH (16 knots; 8.3 m/s)
Visibility: 6 or more miles (10+ km)
Ceiling: at least 12,000 feet AGL
Clouds: scattered clouds at 1500 feet AGL
scattered clouds at 3000 feet AGL
Weather: no significant weather observed at this time